Gentilly, Louisiana
Current Conditions -  °F | °C
As of 6:53 PM on Friday 19 Dec 2014 (Local Time) from KNEW Reporting Station
Overcast Overcast  
Wind Chill: 53°   Ceiling: 600
Heat Index: 53°   Visibility: 10mi
Dew Point: 49°   Wind: 16mph
Humidity: 86%   Direction: 70°ENE
Pressure: 30.08"   Gusts: NA
Location:  30.0105°N, 90.0635°W
Report Text: KNEW 200053Z AUTO 07014KT 10SM OVC006 12/09 A3008 RMK AO2 SLP179 T01170094 TSNO
Loading
Personal Weather Stations






























Interactive Weather Map New forecast layout! Learn more

10-Day Weather Forecast

Advertisements
Track Severe Weather on mobile